createdAt,value
2018-06-17T00:00:28.263Z,87.31
2018-06-17T00:01:49.765Z,87.50
2018-06-17T00:02:28.765Z,87.60
2018-06-17T00:03:28.766Z,87.41
2018-06-17T00:04:28.770Z,87.21
2018-06-17T00:05:50.265Z,87.70
2018-06-17T00:06:29.268Z,87.41
2018-06-17T00:07:50.279Z,87.31
2018-06-17T00:08:29.272Z,87.31
2018-06-17T00:09:50.766Z,87.31
2018-06-17T00:10:29.765Z,87.41
2018-06-17T00:11:43.770Z,87.26
2018-06-17T00:12:29.765Z,87.26
2018-06-17T00:13:30.267Z,87.07
2018-06-17T00:14:50.466Z,87.21
2018-06-17T00:15:30.264Z,87.21
2018-06-17T00:16:30.269Z,87.79
2018-06-17T00:17:30.264Z,87.45
2018-06-17T00:18:30.766Z,87.60
2018-06-17T00:19:31.697Z,87.50
2018-06-17T00:20:30.765Z,87.60
2018-06-17T00:21:32.228Z,88.27
2018-06-17T00:22:31.265Z,87.50
2018-06-17T00:23:31.264Z,87.26
2018-06-17T00:24:31.268Z,87.26
2018-06-17T00:25:31.267Z,87.55
2018-06-17T00:26:31.765Z,87.74
2018-06-17T00:27:31.813Z,87.55
2018-06-17T00:28:31.129Z,87.55
2018-06-17T00:29:31.766Z,87.55
2018-06-17T00:30:54.263Z,87.55
2018-06-17T00:31:53.266Z,87.64
2018-06-17T00:32:32.277Z,87.55
2018-06-17T00:33:32.263Z,87.35
2018-06-17T00:34:52.859Z,87.35
2018-06-17T00:35:32.764Z,87.45
2018-06-17T00:36:53.765Z,87.35
2018-06-17T00:37:32.765Z,87.64
2018-06-17T00:38:35.260Z,87.35
2018-06-17T00:39:33.265Z,87.55
2018-06-17T00:40:35.275Z,87.64
2018-06-17T00:41:33.264Z,87.64
2018-06-17T00:42:33.764Z,87.79
2018-06-17T00:43:33.762Z,87.60
2018-06-17T00:44:33.765Z,87.79
2018-06-17T00:45:33.263Z,87.79
2018-06-17T00:46:35.197Z,87.84
2018-06-17T00:47:33.483Z,87.31
2018-06-17T00:48:34.277Z,87.45
2018-06-17T00:51:05.057Z,87.31
2018-06-17T00:52:05.155Z,87.31
2018-06-17T00:53:05.785Z,87.50
2018-06-17T00:54:27.283Z,87.31
2018-06-17T00:55:05.512Z,88.27
2018-06-17T00:56:07.218Z,87.60
2018-06-17T00:57:06.284Z,87.21
2018-06-17T00:58:06.793Z,87.41
2018-06-17T00:59:27.791Z,87.41
2018-06-17T01:01:44.301Z,86.83
2018-06-17T01:02:38.306Z,87.31
2018-06-17T01:03:38.307Z,87.41
2018-06-17T01:04:39.768Z,87.60
2018-06-17T01:05:38.808Z,87.50
2018-06-17T01:06:38.156Z,87.21
2018-06-17T01:07:38.809Z,87.12
2018-06-17T01:08:39.308Z,87.50
2018-06-17T01:09:41.309Z,87.50
2018-06-17T01:10:39.311Z,87.46
2018-06-17T01:12:00.309Z,87.27
2018-06-17T01:12:38.909Z,86.74
2018-06-17T01:13:39.809Z,87.55
2018-06-17T01:14:39.814Z,88.32
2018-06-17T01:15:39.808Z,88.03
2018-06-17T01:16:40.308Z,87.17
2018-06-17T01:17:40.352Z,87.74
2018-06-17T01:18:40.307Z,87.08
2018-06-17T01:19:40.309Z,86.79
2018-06-17T01:20:40.810Z,86.12
2018-06-17T01:21:42.745Z,86.60
2018-06-17T01:22:40.808Z,87.27
2018-06-17T01:23:40.806Z,87.32
2018-06-17T01:24:41.315Z,88.28
2018-06-17T01:26:02.308Z,87.46
2018-06-17T01:26:41.308Z,87.70
2018-06-17T01:27:41.308Z,87.94
2018-06-17T01:28:41.809Z,88.42
2018-06-17T01:29:41.036Z,88.85
2018-06-17T01:30:41.816Z,88.70
2018-06-17T01:31:43.306Z,88.47
2018-06-17T01:32:42.308Z,88.42
2018-06-17T01:33:42.307Z,88.85
2018-06-17T01:34:42.320Z,88.95
2018-06-17T01:35:42.310Z,89.14
2018-06-17T01:36:41.923Z,88.76
2018-06-17T01:37:42.817Z,89.04
2018-06-17T01:38:42.164Z,89.33
2018-06-17T01:39:42.258Z,88.95
2018-06-17T01:42:14.506Z,89.04
2018-06-17T01:43:14.513Z,89.33
2018-06-17T01:44:14.517Z,89.14
2018-06-17T01:45:15.018Z,89.52
2018-06-17T01:46:15.023Z,88.99
2018-06-17T01:47:15.017Z,88.18
2018-06-17T01:48:15.014Z,88.56
2018-06-17T01:49:42.514Z,88.95
2018-06-17T01:50:15.513Z,89.09
2018-06-17T01:51:16.447Z,89.04
2018-06-17T01:52:15.511Z,88.47
2018-06-17T01:53:15.517Z,88.51
2018-06-17T01:54:37.014Z,88.85
2018-06-17T01:56:47.394Z,89.81
2018-06-17T01:57:48.332Z,89.81
2018-06-17T01:58:47.401Z,90.09
2018-06-17T01:59:47.394Z,89.90
2018-06-17T02:02:40.138Z,89.23
2018-06-17T02:03:19.145Z,89.04
2018-06-17T02:04:19.145Z,89.04
2018-06-17T02:05:25.649Z,89.90
2018-06-17T02:06:42.577Z,90.09
2018-06-17T02:07:40.643Z,90.19
2018-06-17T02:08:19.642Z,90.00
2018-06-17T02:10:50.764Z,89.43
2018-06-17T02:11:51.504Z,89.04
2018-06-17T02:12:51.521Z,89.04
2018-06-17T02:13:51.099Z,89.04
2018-06-17T02:15:13.013Z,89.14
2018-06-17T02:15:52.006Z,89.33
2018-06-17T02:16:52.004Z,89.43
2018-06-17T02:17:52.007Z,89.23
2018-06-17T02:18:54.507Z,89.04
2018-06-17T02:19:52.505Z,89.04
2018-06-17T02:20:52.040Z,89.04
2018-06-17T02:21:53.006Z,89.04
2018-06-17T02:22:53.004Z,88.95
2018-06-17T02:23:53.008Z,89.52
2018-06-17T02:24:53.030Z,90.09
2018-06-17T02:25:53.505Z,89.62
2018-06-17T02:26:53.505Z,89.90
2018-06-17T02:27:53.514Z,89.72
2018-06-17T02:28:52.894Z,90.19
2018-06-17T02:29:53.506Z,90.19
2018-06-17T02:30:54.006Z,90.67
2018-06-17T02:31:54.006Z,90.86
2018-06-17T02:32:54.006Z,90.77
2018-06-17T02:33:54.006Z,91.05
2018-06-17T02:34:53.665Z,90.67
2018-06-17T02:36:16.440Z,90.86
2018-06-17T02:36:54.509Z,90.29
2018-06-17T02:37:54.505Z,90.14
2018-06-17T02:38:55.006Z,90.09
2018-06-17T02:39:55.008Z,90.48
2018-06-17T02:40:55.006Z,89.62
2018-06-17T02:41:55.006Z,89.90
2018-06-17T02:42:55.509Z,89.81
2018-06-17T02:43:55.508Z,90.00
2018-06-17T02:44:55.521Z,89.95
2018-06-17T02:45:54.977Z,89.81
2018-06-17T02:46:56.006Z,90.00
2018-06-17T02:47:56.011Z,89.86
2018-06-17T02:48:56.003Z,90.19
2018-06-17T02:49:56.009Z,90.58
2018-06-17T02:50:56.506Z,90.62
2018-06-17T02:52:10.514Z,91.05
2018-06-17T02:52:56.505Z,90.62
2018-06-17T02:53:56.523Z,90.33
2018-06-17T02:55:11.013Z,90.33
2018-06-17T02:55:59.005Z,90.33
2018-06-17T02:57:22.438Z,90.14
2018-06-17T02:57:56.473Z,90.00
2018-06-17T02:58:57.506Z,90.86
2018-06-17T02:59:57.513Z,90.48
2018-06-17T03:00:57.504Z,90.91
2018-06-17T03:01:57.505Z,91.15
2018-06-17T03:02:58.007Z,91.29
2018-06-17T03:03:58.107Z,91.44
2018-06-17T03:04:58.013Z,90.77
2018-06-17T03:05:58.007Z,90.96
2018-06-17T03:07:20.938Z,91.63
2018-06-17T03:07:58.526Z,90.86
2018-06-17T03:08:58.514Z,90.58
2018-06-17T03:09:58.506Z,90.81
2018-06-17T03:10:59.006Z,91.19
2018-06-17T03:11:59.015Z,91.10
2018-06-17T03:12:59.007Z,91.39
2018-06-17T03:13:59.006Z,91.00
2018-06-17T03:16:30.759Z,90.91
2018-06-17T03:17:30.770Z,91.00
2018-06-17T03:18:31.765Z,91.00
2018-06-17T03:19:45.265Z,91.19
2018-06-17T03:20:31.266Z,90.81
2018-06-17T03:21:52.267Z,90.72
2018-06-17T03:22:31.273Z,90.72
2018-06-17T03:23:31.767Z,90.72
2018-06-17T03:24:31.766Z,90.53
2018-06-17T03:25:52.767Z,91.00
2018-06-17T03:26:31.766Z,90.43
2018-06-17T03:27:53.281Z,90.81
2018-06-17T03:28:32.266Z,90.62
2018-06-17T03:29:34.266Z,90.62
2018-06-17T03:30:32.268Z,90.67
2018-06-17T03:31:33.719Z,90.38
2018-06-17T03:32:53.772Z,89.90
2018-06-17T03:36:35.571Z,90.09
2018-06-17T03:37:34.920Z,90.38
2018-06-17T03:38:35.586Z,90.00
2018-06-17T03:39:35.185Z,90.00
2018-06-17T03:40:37.080Z,89.90
2018-06-17T03:41:37.047Z,90.38
2018-06-17T03:42:36.073Z,90.95
2018-06-17T03:43:38.576Z,90.19
2018-06-17T03:44:57.581Z,89.90
2018-06-17T03:45:38.011Z,90.00
2018-06-17T03:46:38.556Z,89.90
2018-06-17T03:50:39.730Z,90.47
2018-06-17T03:52:00.739Z,90.47
2018-06-17T03:52:39.742Z,89.80
2018-06-17T03:53:40.238Z,89.71
2018-06-17T03:54:39.461Z,89.51
2018-06-17T03:55:40.239Z,89.37
2018-06-17T03:56:40.290Z,90.00
2018-06-17T03:58:01.739Z,90.00
2018-06-17T03:58:40.746Z,89.94
2018-06-17T03:59:40.737Z,90.19
2018-06-17T04:01:01.738Z,90.19
2018-06-17T04:01:40.739Z,90.04
2018-06-17T04:02:41.240Z,89.85
2018-06-17T04:03:41.742Z,89.56
2018-06-17T04:04:41.236Z,89.75
2018-06-17T04:05:41.245Z,89.75
2018-06-17T04:06:43.741Z,89.56
2018-06-17T04:07:41.734Z,89.71
2018-06-17T04:08:42.671Z,90.09
2018-06-17T04:09:41.747Z,89.90
2018-06-17T04:10:42.240Z,89.51
2018-06-17T04:11:42.239Z,90.19
2018-06-17T04:12:42.248Z,89.61
2018-06-17T04:13:42.239Z,90.19
2018-06-17T04:15:03.737Z,89.75
2018-06-17T04:16:03.766Z,89.94
2018-06-17T04:16:42.741Z,90.14
2018-06-17T04:17:42.739Z,89.65
2018-06-17T04:18:44.172Z,89.75
2018-06-17T04:19:44.702Z,90.04
2018-06-17T04:20:43.240Z,90.04
2018-06-17T04:21:43.238Z,90.14
2018-06-17T04:23:04.739Z,90.04
2018-06-17T04:23:44.712Z,89.94
2018-06-17T04:24:43.737Z,89.56
2018-06-17T04:25:43.279Z,90.04
2018-06-17T04:26:43.340Z,90.14
2018-06-17T04:27:44.238Z,89.56
2018-06-17T04:28:43.623Z,90.14
2018-06-17T04:29:44.245Z,90.14
2018-06-17T04:30:44.738Z,89.37
2018-06-17T04:32:05.739Z,88.93
2018-06-17T04:32:45.740Z,88.74
2018-06-17T04:33:44.742Z,88.93
2018-06-17T04:34:44.337Z,88.55
2018-06-17T04:36:06.238Z,89.32
2018-06-17T04:37:05.752Z,89.32
2018-06-17T04:37:45.242Z,89.22
2018-06-17T04:38:44.838Z,88.93
2018-06-17T04:39:45.740Z,89.32
2018-06-17T04:40:45.740Z,90.18
2018-06-17T04:41:45.218Z,90.18
2018-06-17T04:42:46.239Z,90.28
2018-06-17T04:43:46.239Z,89.70
2018-06-17T04:44:46.235Z,89.12
2018-06-17T04:45:46.244Z,89.41
2018-06-17T04:48:17.977Z,89.22
2018-06-17T04:49:17.987Z,89.32
2018-06-17T04:50:17.987Z,89.61
2018-06-17T04:51:38.569Z,89.41
2018-06-17T04:52:18.487Z,89.22
2018-06-17T04:53:18.487Z,89.03
2018-06-17T04:54:18.487Z,89.26
2018-06-17T04:55:18.087Z,89.26
2018-06-17T04:56:19.948Z,89.07
2018-06-17T04:57:19.919Z,89.26
2018-06-17T04:58:18.992Z,89.36
2018-06-17T04:59:19.490Z,89.07
2018-06-17T05:00:19.487Z,89.07
2018-06-17T05:01:40.487Z,89.55
2018-06-17T05:02:19.495Z,89.65
2018-06-17T05:03:19.987Z,89.26
2018-06-17T05:04:19.984Z,89.26
2018-06-17T05:05:19.987Z,89.17
2018-06-17T05:06:20.022Z,89.17
2018-06-17T05:07:20.492Z,89.07
2018-06-17T05:08:20.487Z,89.07
2018-06-17T05:10:51.991Z,89.26
2018-06-17T05:11:52.003Z,89.55
2018-06-17T05:12:51.999Z,89.46
2018-06-17T05:13:52.499Z,89.07
2018-06-17T05:14:52.499Z,89.46
2018-06-17T05:15:52.496Z,89.26
2018-06-17T05:16:52.509Z,89.17
2018-06-17T05:17:52.999Z,88.69
2018-06-17T05:18:52.999Z,88.88
2018-06-17T05:19:53.048Z,89.22
2018-06-17T05:20:53.021Z,89.50
2018-06-17T05:21:53.499Z,88.73
2018-06-17T05:23:07.500Z,88.64
2018-06-17T05:23:53.499Z,88.64
2018-06-17T05:24:53.500Z,88.16
2018-06-17T05:25:54.003Z,87.68
2018-06-17T05:28:25.388Z,87.72
2018-06-17T05:30:56.885Z,88.30
2018-06-17T05:33:31.568Z,87.43
2018-06-17T05:34:31.028Z,87.62
2018-06-17T05:35:29.574Z,87.24
2018-06-17T05:36:29.574Z,86.57
2018-06-17T05:37:30.075Z,86.57
2018-06-17T05:38:31.035Z,86.47
2018-06-17T05:39:51.075Z,86.28
2018-06-17T05:40:32.075Z,86.66
2018-06-17T05:41:46.030Z,85.89
2018-06-17T05:42:51.583Z,86.28
2018-06-17T05:43:51.579Z,86.13
2018-06-17T05:44:30.575Z,86.71
2018-06-17T05:45:52.076Z,86.42
2018-06-17T05:46:31.080Z,86.32
2018-06-17T05:47:31.105Z,85.46
2018-06-17T05:48:52.080Z,84.59
2018-06-17T05:49:52.575Z,85.55
2018-06-17T05:50:31.575Z,85.46
2018-06-17T05:51:31.575Z,85.36
2018-06-17T05:52:31.576Z,85.36
2018-06-17T05:53:53.076Z,85.46
2018-06-17T05:54:32.075Z,85.17
2018-06-17T05:55:33.094Z,84.44
2018-06-17T05:56:32.075Z,84.54
2018-06-17T05:57:53.582Z,84.83
2018-06-17T05:58:32.575Z,84.63
2018-06-17T05:59:52.930Z,84.25
2018-06-17T06:00:32.575Z,83.86
2018-06-17T06:01:53.159Z,84.16
2018-06-17T06:02:54.073Z,83.67
2018-06-17T06:03:48.547Z,83.00
2018-06-17T06:04:35.008Z,82.32
2018-06-17T06:05:33.575Z,84.16
2018-06-17T06:06:54.576Z,83.77
2018-06-17T06:07:33.583Z,83.96
2018-06-17T06:08:33.573Z,83.86
2018-06-17T06:09:34.075Z,84.25
2018-06-17T06:10:54.310Z,83.77
2018-06-17T06:11:34.075Z,82.61
2018-06-17T06:12:40.009Z,82.42
2018-06-17T06:13:55.574Z,81.84
2018-06-17T06:14:34.576Z,83.48
2018-06-17T06:15:36.008Z,82.14
2018-06-17T06:16:34.575Z,82.42
2018-06-17T06:17:56.079Z,82.61
2018-06-17T06:18:35.077Z,81.46
2018-06-17T06:19:34.423Z,82.14
2018-06-17T06:20:36.074Z,80.88
2018-06-17T06:21:35.575Z,80.69
2018-06-17T06:22:37.581Z,81.56
2018-06-17T06:23:35.575Z,80.30
2018-06-17T06:24:35.597Z,78.86
2018-06-17T06:25:38.549Z,77.71
2018-06-17T06:26:50.076Z,77.33
2018-06-17T06:27:36.082Z,76.56
2018-06-17T06:28:36.085Z,76.17
2018-06-17T06:29:57.576Z,76.65
2018-06-17T06:30:42.576Z,75.88
2018-06-17T06:33:07.386Z,74.67
2018-06-17T06:34:08.111Z,73.13
2018-06-17T06:35:07.593Z,73.03
2018-06-17T06:36:22.614Z,73.80
2018-06-17T06:37:08.619Z,73.71
2018-06-17T06:38:10.049Z,71.01
2018-06-17T06:39:08.620Z,70.72
2018-06-17T06:40:08.613Z,71.40
2018-06-17T06:42:40.363Z,70.34
2018-06-17T06:43:40.372Z,69.38
2018-06-17T06:44:40.371Z,67.80
2018-06-17T06:45:40.903Z,68.41
2018-06-17T06:46:40.879Z,68.99
2018-06-17T06:47:40.874Z,69.92
2018-06-17T06:48:40.876Z,69.73
2018-06-17T06:49:41.371Z,69.06
2018-06-17T06:50:41.370Z,69.67
2018-06-17T06:51:41.379Z,70.34
2018-06-17T06:52:41.384Z,67.74
2018-06-17T06:53:41.872Z,67.90
2018-06-17T06:54:41.925Z,69.06
2018-06-17T06:55:41.874Z,70.01
2018-06-17T06:56:41.870Z,69.95
2018-06-17T06:57:42.370Z,69.63
2018-06-17T06:58:42.408Z,69.18
2018-06-17T06:59:42.372Z,70.53
2018-06-17T07:00:42.372Z,70.15
2018-06-17T07:01:42.873Z,69.67
2018-06-17T07:02:42.871Z,70.82
2018-06-17T07:03:42.872Z,68.60
2018-06-17T07:04:42.872Z,69.76
2018-06-17T07:05:44.334Z,69.67
2018-06-17T07:06:44.369Z,70.95
2018-06-17T07:07:43.391Z,69.70
2018-06-17T07:08:44.369Z,68.35
2018-06-17T07:09:43.876Z,67.87
2018-06-17T07:10:43.901Z,67.10
2018-06-17T07:11:43.254Z,67.00
2018-06-17T07:12:43.878Z,68.06
2018-06-17T07:13:44.374Z,67.97
2018-06-17T07:14:44.371Z,66.62
2018-06-17T07:15:44.371Z,65.27
2018-06-17T07:16:43.887Z,66.46
2018-06-17T07:17:44.870Z,67.13
2018-06-17T07:18:44.876Z,62.48
2018-06-17T07:19:44.871Z,63.67
2018-06-17T07:20:44.872Z,64.34
2018-06-17T07:21:45.375Z,62.03
2018-06-17T07:22:45.383Z,62.41
2018-06-17T07:23:45.372Z,63.47
2018-06-17T07:24:45.372Z,62.60
2018-06-17T07:26:06.872Z,60.77
2018-06-17T07:27:06.873Z,61.65
2018-06-17T07:28:06.207Z,62.54
2018-06-17T07:28:45.875Z,63.12
2018-06-17T07:29:48.806Z,62.35
2018-06-17T07:30:45.553Z,62.06
2018-06-17T07:31:48.331Z,61.19
2018-06-17T07:32:46.375Z,60.80
2018-06-17T07:33:46.870Z,59.97
2018-06-17T07:34:46.872Z,60.83
2018-06-17T07:35:46.872Z,60.55
2018-06-17T07:36:48.308Z,60.74
2018-06-17T07:37:47.374Z,60.93
2018-06-17T07:38:48.842Z,61.54
2018-06-17T07:39:47.373Z,61.35
2018-06-17T07:40:47.423Z,61.74
2018-06-17T07:41:47.873Z,59.52
2018-06-17T07:42:51.335Z,60.48
2018-06-17T07:43:47.903Z,58.58
2018-06-17T07:44:47.872Z,58.48
2018-06-17T07:47:40.626Z,55.76
2018-06-17T07:48:21.646Z,56.33
2018-06-17T07:49:19.661Z,57.97
2018-06-17T07:50:20.133Z,56.98
2018-06-17T07:51:20.130Z,57.75
2018-06-17T07:52:20.136Z,58.91
2018-06-17T07:53:20.140Z,59.80
2018-06-17T07:54:20.633Z,58.23
2018-06-17T07:55:20.633Z,59.23
2018-06-17T07:56:20.640Z,60.38
2018-06-17T07:57:20.633Z,60.83
2018-06-17T07:58:20.253Z,61.03
2018-06-17T07:59:20.352Z,60.58
2018-06-17T08:00:21.133Z,60.38
2018-06-17T08:01:42.133Z,59.03
2018-06-17T08:02:21.638Z,59.32
2018-06-17T08:03:42.636Z,56.52
2018-06-17T08:04:21.634Z,57.10
2018-06-17T08:05:21.636Z,56.46
2018-06-17T08:06:22.142Z,54.31
2018-06-17T08:07:22.134Z,53.95
2018-06-17T08:08:21.487Z,54.14
2018-06-17T08:09:22.134Z,56.84
2018-06-17T08:10:43.645Z,57.52
2018-06-17T08:11:22.635Z,56.56
2018-06-17T08:12:22.631Z,54.05
2018-06-17T08:13:22.638Z,52.59
2018-06-17T08:14:22.246Z,53.95
2018-06-17T08:15:23.135Z,57.84
2018-06-17T08:16:25.134Z,57.54
2018-06-17T08:17:23.141Z,54.75
2018-06-17T08:18:23.670Z,54.55
2018-06-17T08:19:23.634Z,55.33
2018-06-17T08:20:23.634Z,54.00
2018-06-17T08:21:23.634Z,54.87
2018-06-17T08:22:24.167Z,53.42
2018-06-17T08:23:24.143Z,53.81
2018-06-17T08:24:24.134Z,54.68
2018-06-17T08:25:24.135Z,53.23
2018-06-17T08:26:24.647Z,52.07
2018-06-17T08:27:24.635Z,52.65
2018-06-17T08:28:24.635Z,52.45
2018-06-17T08:29:24.634Z,52.55
2018-06-17T08:30:25.187Z,55.45
2018-06-17T08:31:25.135Z,55.35
2018-06-17T08:32:25.140Z,52.87
2018-06-17T08:33:25.140Z,54.32
2018-06-17T08:34:49.569Z,53.35
2018-06-17T08:35:25.635Z,51.61
2018-06-17T08:36:27.110Z,52.07
2018-06-17T08:37:25.645Z,52.36
2018-06-17T08:39:57.409Z,52.55
2018-06-17T08:40:57.417Z,53.59
2018-06-17T08:42:18.418Z,54.46
2018-06-17T08:43:11.922Z,53.69
2018-06-17T08:44:18.126Z,54.46
2018-06-17T08:44:57.917Z,56.39
2018-06-17T08:45:57.917Z,55.98
2018-06-17T08:46:57.555Z,55.49
2018-06-17T08:48:19.423Z,56.74
2018-06-17T08:48:58.421Z,58.58
2018-06-17T08:49:58.414Z,58.29
2018-06-17T08:50:58.917Z,57.42
2018-06-17T08:51:58.143Z,58.03
2018-06-17T08:52:58.927Z,58.10
2018-06-17T08:53:58.917Z,56.07
2018-06-17T08:54:58.536Z,56.36
2018-06-17T08:56:00.377Z,55.71
2018-06-17T08:56:59.418Z,56.29
2018-06-17T08:57:59.414Z,55.23
2018-06-17T09:00:30.475Z,56.61
2018-06-17T09:01:31.215Z,55.45
2018-06-17T09:02:31.211Z,56.32
2018-06-17T09:03:52.722Z,54.10
2018-06-17T09:04:31.710Z,52.75
2018-06-17T09:05:31.715Z,57.38
2018-06-17T09:06:31.712Z,53.23
2018-06-17T09:07:46.211Z,54.55
2018-06-17T09:10:03.596Z,54.17
2018-06-17T09:11:03.610Z,55.45
2018-06-17T09:12:03.652Z,54.29
2018-06-17T09:13:05.045Z,54.19
2018-06-17T09:14:04.112Z,54.03
2018-06-17T09:15:03.488Z,52.39
2018-06-17T09:16:03.597Z,52.67
2018-06-17T09:17:04.610Z,53.64
2018-06-17T09:18:04.610Z,52.48
2018-06-17T09:19:04.610Z,51.97
2018-06-17T09:20:04.611Z,51.23
2018-06-17T09:21:05.111Z,51.29
2018-06-17T09:22:05.110Z,50.91
2018-06-17T09:23:25.444Z,51.20
2018-06-17T09:24:05.114Z,51.68
2018-06-17T09:25:04.721Z,52.94
2018-06-17T09:26:05.615Z,55.26
2018-06-17T09:27:10.543Z,54.68
2018-06-17T09:28:05.093Z,56.58
2018-06-17T09:29:06.111Z,57.67
2018-06-17T09:30:07.584Z,54.77
2018-06-17T09:31:06.112Z,53.97
2018-06-17T09:32:06.193Z,54.07
2018-06-17T09:33:27.627Z,56.87
2018-06-17T09:34:09.043Z,53.78
2018-06-17T09:35:27.611Z,52.81
2018-06-17T09:36:06.611Z,53.39
2018-06-17T09:37:06.239Z,53.30
2018-06-17T09:38:07.115Z,53.78
2018-06-17T09:40:38.622Z,54.75
2018-06-17T09:41:38.629Z,54.17
2018-06-17T09:42:38.639Z,54.36
2018-06-17T09:43:40.591Z,53.78
2018-06-17T09:44:40.084Z,53.30
2018-06-17T09:46:00.126Z,54.46
2018-06-17T09:46:39.128Z,55.62
2018-06-17T09:48:00.625Z,53.59
2018-06-17T09:48:39.632Z,53.42
2018-06-17T09:49:39.626Z,54.97
2018-06-17T09:50:39.627Z,55.26
2018-06-17T09:51:46.127Z,52.07
2018-06-17T09:52:40.128Z,52.39
2018-06-17T09:53:40.126Z,52.58
2018-06-17T09:54:40.127Z,54.35
2018-06-17T09:55:40.640Z,54.53
2018-06-17T09:57:03.106Z,51.93
2018-06-17T09:57:40.628Z,51.08
2018-06-17T09:58:40.626Z,47.79
2018-06-17T09:59:41.128Z,46.53
2018-06-17T10:00:41.130Z,46.46
2018-06-17T10:01:41.136Z,45.88
2018-06-17T10:02:41.133Z,45.59
2018-06-17T10:03:41.628Z,47.62
2018-06-17T10:05:02.629Z,46.66
2018-06-17T10:05:41.632Z,48.01
2018-06-17T10:06:41.636Z,47.43
2018-06-17T10:07:42.129Z,45.40
2018-06-17T10:08:42.130Z,48.13
2018-06-17T10:09:41.491Z,47.55
2018-06-17T10:11:03.133Z,45.81
2018-06-17T10:11:42.635Z,47.64
2018-06-17T10:12:42.628Z,47.64
2018-06-17T10:13:42.630Z,47.26
2018-06-17T10:14:42.628Z,45.76
2018-06-17T10:15:43.138Z,46.53
2018-06-17T10:16:43.132Z,48.76
2018-06-17T10:17:43.132Z,47.67
2018-06-17T10:18:43.129Z,49.00
2018-06-17T10:19:42.734Z,49.87
2018-06-17T10:20:43.630Z,49.29
2018-06-17T10:21:43.627Z,49.58
2018-06-17T10:22:43.631Z,50.16
2018-06-17T10:24:05.130Z,49.87
2018-06-17T10:24:43.363Z,48.23
2018-06-17T10:25:44.129Z,48.81
2018-06-17T10:26:43.648Z,48.71
2018-06-17T10:27:43.737Z,48.88
2018-06-17T10:29:05.630Z,48.71
2018-06-17T10:29:44.629Z,49.19
2018-06-17T10:30:50.632Z,49.97
2018-06-17T10:31:44.296Z,50.93
2018-06-17T10:33:07.062Z,52.19
2018-06-17T10:33:45.130Z,51.71
2018-06-17T10:34:45.131Z,50.84
2018-06-17T10:36:06.629Z,49.68
2018-06-17T10:36:45.628Z,49.10
2018-06-17T10:37:45.630Z,49.97
2018-06-17T10:38:45.629Z,49.77
2018-06-17T10:41:17.396Z,53.55
2018-06-17T10:42:17.403Z,53.42
2018-06-17T10:43:16.916Z,54.97
2018-06-17T10:44:38.905Z,53.81
2018-06-17T10:45:17.903Z,52.55
2018-06-17T10:46:17.898Z,53.23
2018-06-17T10:47:17.902Z,54.49
2018-06-17T10:48:20.409Z,53.42
2018-06-17T10:49:18.404Z,55.04
2018-06-17T10:50:20.460Z,56.58
2018-06-17T10:51:18.407Z,53.11
2018-06-17T10:52:18.904Z,53.39
2018-06-17T10:53:18.903Z,54.46
2018-06-17T10:54:18.903Z,54.46
2018-06-17T10:55:18.950Z,54.36
2018-06-17T10:56:19.439Z,54.58
2018-06-17T10:57:19.421Z,53.81
2018-06-17T10:58:19.438Z,52.65
2018-06-17T10:59:19.404Z,52.45
2018-06-17T11:00:19.907Z,52.75
2018-06-17T11:01:40.905Z,53.33
2018-06-17T11:02:19.261Z,52.36
2018-06-17T11:03:19.904Z,51.68
2018-06-17T11:04:41.407Z,51.59
2018-06-17T11:05:20.450Z,50.33
2018-06-17T11:06:20.405Z,50.35
2018-06-17T11:07:20.403Z,51.51
2018-06-17T11:08:20.009Z,51.61
2018-06-17T11:09:20.903Z,51.81
2018-06-17T11:10:20.905Z,52.77
2018-06-17T11:11:42.414Z,50.81
2018-06-17T11:12:21.405Z,51.59
2018-06-17T11:13:20.684Z,51.61
2018-06-17T11:14:21.409Z,52.17
2018-06-17T11:15:20.888Z,51.39
2018-06-17T11:16:42.906Z,50.52
2018-06-17T11:17:42.903Z,51.97
2018-06-17T11:18:21.918Z,50.13
2018-06-17T11:19:21.905Z,50.04
2018-06-17T11:20:22.405Z,51.78
2018-06-17T11:21:25.339Z,50.74
2018-06-17T11:22:22.429Z,49.29
2018-06-17T11:23:43.406Z,47.45
2018-06-17T11:24:22.905Z,50.07
2018-06-17T11:25:22.909Z,48.42
2018-06-17T11:26:22.945Z,47.36
2018-06-17T11:27:44.406Z,49.49
2018-06-17T11:29:53.952Z,49.10
2018-06-17T11:30:54.675Z,49.19
2018-06-17T11:31:54.676Z,49.32
2018-06-17T11:33:17.146Z,50.57
2018-06-17T11:34:01.201Z,51.64
2018-06-17T11:36:26.157Z,49.34
2018-06-17T11:37:28.523Z,50.60
2018-06-17T11:38:27.092Z,52.24
2018-06-17T11:39:27.091Z,51.37
2018-06-17T11:40:27.089Z,48.76
2018-06-17T11:41:27.591Z,49.46
2018-06-17T11:42:27.591Z,49.46
2018-06-17T11:43:27.592Z,51.40
2018-06-17T11:44:28.554Z,49.85
2018-06-17T11:45:28.091Z,48.39
2018-06-17T11:46:49.099Z,50.82
2018-06-17T11:47:49.091Z,48.76
2018-06-17T11:48:28.091Z,48.95
2018-06-17T11:49:49.591Z,49.63
2018-06-17T11:50:28.593Z,51.06
2018-06-17T11:51:28.621Z,50.40
2018-06-17T11:52:28.593Z,53.47
2018-06-17T11:53:29.093Z,54.17
2018-06-17T11:54:29.099Z,53.41
2018-06-17T11:55:29.092Z,52.53
2018-06-17T11:56:29.093Z,52.63
2018-06-17T11:57:29.592Z,49.32
2018-06-17T11:58:29.592Z,49.22
2018-06-17T11:59:29.592Z,49.41
2018-06-17T12:00:30.107Z,49.70
2018-06-17T12:01:30.092Z,48.83
2018-06-17T12:02:29.323Z,47.67
2018-06-17T12:03:32.092Z,50.21
2018-06-17T12:04:29.579Z,47.89
2018-06-17T12:05:30.595Z,48.93
2018-06-17T12:06:30.593Z,49.73
2018-06-17T12:07:31.591Z,47.31
2018-06-17T12:08:30.593Z,47.89
2018-06-17T12:11:02.361Z,48.79
2018-06-17T12:13:02.368Z,48.79
2018-06-17T12:15:34.136Z,49.34
2018-06-17T12:16:34.144Z,49.24
2018-06-17T12:17:34.143Z,48.37
2018-06-17T12:18:34.645Z,48.08
2018-06-17T12:19:34.643Z,47.21
2018-06-17T12:20:34.646Z,47.89
2018-06-17T12:21:34.652Z,47.89
2018-06-17T12:22:56.143Z,47.50
2018-06-17T12:23:35.143Z,47.79
2018-06-17T12:24:35.150Z,47.69
2018-06-17T12:25:35.144Z,48.97
2018-06-17T12:26:35.647Z,49.54
2018-06-17T12:27:35.648Z,47.91
2018-06-17T12:28:35.644Z,48.20
2018-06-17T12:29:35.646Z,47.62
2018-06-17T12:30:36.149Z,46.17
2018-06-17T12:31:39.126Z,45.90
2018-06-17T12:32:38.620Z,49.10
2018-06-17T12:33:36.145Z,49.19
2018-06-17T12:36:07.902Z,45.92
2018-06-17T12:37:07.910Z,47.79
2018-06-17T12:38:07.397Z,48.30
2018-06-17T12:39:29.421Z,47.62
2018-06-17T12:40:07.654Z,42.79
2018-06-17T12:41:07.764Z,41.63
2018-06-17T12:42:08.415Z,41.63
2018-06-17T12:43:08.017Z,43.40
2018-06-17T12:44:08.909Z,41.36
2018-06-17T12:45:29.912Z,39.80
2018-06-17T12:46:08.911Z,41.26
2018-06-17T12:47:09.411Z,41.64
2018-06-17T12:48:09.413Z,41.45
2018-06-17T12:49:09.459Z,41.16
2018-06-17T12:51:46.564Z,42.46
2018-06-17T12:52:43.064Z,44.88
2018-06-17T12:53:41.644Z,46.51
2018-06-17T12:54:41.759Z,43.99
2018-06-17T12:55:43.065Z,43.99
2018-06-17T12:56:42.138Z,45.83
2018-06-17T12:57:42.137Z,45.81
2018-06-17T12:58:42.131Z,45.42
2018-06-17T12:59:42.633Z,46.48
2018-06-17T13:00:42.633Z,48.42
2018-06-17T13:01:42.633Z,45.22
2018-06-17T13:02:42.633Z,45.71
2018-06-17T13:03:43.134Z,45.73
2018-06-17T13:04:43.163Z,45.32
2018-06-17T13:05:43.134Z,45.64
2018-06-17T13:06:43.639Z,45.34
2018-06-17T13:07:43.655Z,45.27
2018-06-17T13:08:43.639Z,45.75
2018-06-17T13:09:43.634Z,45.87
2018-06-17T13:10:43.761Z,45.17
2018-06-17T13:11:44.134Z,42.65
2018-06-17T13:12:44.163Z,43.13
2018-06-17T13:13:46.134Z,42.94
2018-06-17T13:14:44.134Z,44.59
2018-06-17T13:15:43.741Z,44.59
2018-06-17T13:16:43.850Z,44.20
2018-06-17T13:17:44.641Z,43.72
2018-06-17T13:18:44.634Z,43.89
2018-06-17T13:19:45.136Z,43.89
2018-06-17T13:20:45.136Z,44.40
2018-06-17T13:21:45.135Z,45.95
2018-06-17T13:23:07.142Z,46.14
2018-06-17T13:23:48.066Z,44.71
2018-06-17T13:24:45.635Z,44.51
2018-06-17T13:25:45.637Z,45.12
2018-06-17T13:26:45.636Z,45.02
2018-06-17T13:27:46.151Z,45.02
2018-06-17T13:28:46.134Z,41.99
2018-06-17T13:29:45.505Z,41.61
2018-06-17T13:30:46.135Z,42.86
2018-06-17T13:31:45.745Z,43.06
2018-06-17T13:32:47.633Z,42.86
2018-06-17T13:33:46.635Z,44.81
2018-06-17T13:34:49.136Z,43.13
2018-06-17T13:36:08.153Z,44.61
2018-06-17T13:36:47.137Z,44.30
2018-06-17T13:37:47.141Z,44.30
2018-06-17T13:38:47.136Z,43.50
2018-06-17T13:39:47.636Z,43.13
2018-06-17T13:40:47.635Z,43.43